EGAE

City of Derry Airport

Airport
ICAO code
EGAE
IATA Code
LDY
Summary
ICAO Region
EUR
ICAO Territory
Location

Eglinton, County Londonderry, Northern Ireland

Serving
Derry
Elevation
23 ft
Coordinates
55° 2' 33" N , 7° 9' 45" W
KCC
Cfb
Metar
Observation
EGAE 111320Z 04005KT 9999 FEW018 23/16 Q1023
Station
Eglinton / Londonderr
Date/Time
2022-08-11 13:20:00
Wind direction
40°
Wind speed
05 kts
Lowest cloud amount
few clouds
Temperature
23°C
Dew point
16°C
Humidity
64%
QNH
1023 hPa
Weather condition
n/a

Description

Airport serving the city of Derry/Londonderry in the Northern Ireland, part of the UK.

Climatology

Temperate Marine climate/Oceanic climate (Köppen climate classification Cfb). Moderately cool summer and comparatively warm winter.

Runways

Designator Length Width Surface Rops
2/20 1205 45 ASP Yes/Yes
8/26 1852 45 ASP Yes/Yes

Airport map

Aerial View

SKYbrary Partners:

Safety knowledge contributed by: